アテネ の空港の天気 - METARとTAF

アテネ国際空港 ( LGAV / ATH ) - ギリシャ アテネ
飛行場実況気象(Metar)
観測時間11/30 12:20 EET (11/30 10:20 UTC)
風向・風速北東 4m/s
視程10km以上
天気現象
少しの雲 雲底高度 460m
全天の4割程度の雲 雲底高度 760m
気温16℃
湿度72%
気圧1014hPa
METARLGAV 301020Z 04007KT 9999 FEW015 SCT025 16/11 Q1014 NOSIG
過去の天気等 Google飛行場航空写真 Wunderground天気予報

過去48時間のMETAR

飛行場予報(TAF)
発表時間: 11/30 07:00 EET (11/30 05:00 UTC)
予報対象時間: 30日8時 EET ~ 1日8時 EET
風向・風速不定 3m/s
視程10km以上
全天の4割程度の雲 雲底高度 760m
全天の8割程度の雲 雲底高度 2130m
30日8時 EET ~ 30日20時 EET に 確率 40% で一時的に
視程5000m
天気現象
少しの塔状積雲 雲底高度 550m
全天の8割程度の雲 雲底高度 760m
全天の8割程度の雲 雲底高度 2130m
30日8時 EET ~ 30日14時 EET に 確率 30% で一時的に
視程4000m
天気現象雷雨
全天の4割程度の雲 雲底高度 370m
少しの積乱雲 雲底高度 550m
全天の8割程度の雲 雲底高度 610m
全天を覆う雲 雲底高度 2130m
30日15時 EET ~ 30日17時 EET に徐々に
風向・風速北 8m/s
30日22時 EET ~ 30日24時 EET に徐々に
風向・風速北 8m/s 瞬間風速 13m/s
TAF LGAV 300500Z 3006/0106 VRB05KT 9999 SCT025 BKN070
PROB40 TEMPO 3006/3018 5000 RA FEW018TCU BKN025 BKN070
PROB30 TEMPO 3006/3012 4000 TSRA SCT012 FEW018CB BKN020 OVC070
BECMG 3013/3015 01015KT
BECMG 3020/3022 01015G25KT